.
WxDataArchive / Data Records for 2014-09-12
2014-09-11 September 2014 2014-09-13

Data Records for Friday, 12 September 2014

Time	Temp	Chill	HIndex	Humid	Dewpt	 Wind 	HiWind	WindDir	Rain 	Barom
-----	----	-----	------	-----	-----	------	------	-------	-----	-----
00:00	55.6	55.6	55.6	84	50.8	0	0	---	0.00	30.194 
00:05	55.6	55.6	55.6	84	50.8	0	1	338	0.00	30.194 
00:10	55.6	55.6	55.6	84	50.8	0	0	---	0.00	30.194 
00:15	55.6	55.6	55.6	84	50.8	0	0	---	0.00	30.195 
00:20	55.6	55.6	55.6	84	50.8	0	0	---	0.00	30.195 
00:25	55.6	55.6	55.6	84	50.8	0	0	---	0.00	30.195 
00:30	55.6	55.6	55.6	84	50.8	0	0	---	0.00	30.197 
00:35	55.6	55.6	55.6	84	50.8	0	0	---	0.00	30.197 
00:40	55.6	55.6	55.6	84	50.8	0	1	338	0.00	30.197 
00:45	55.6	55.6	55.6	84	50.8	0	0	---	0.00	30.198 
00:50	55.6	55.6	55.6	84	50.8	0	1	338	0.00	30.198 
00:55	55.4	55.4	55.4	84	50.6	0	0	---	0.00	30.198 
01:00	55.4	55.4	55.4	84	50.6	0	0	---	0.00	30.198 
01:05	55.4	55.4	55.4	85	51.0	0	0	---	0.00	30.198 
01:10	55.4	55.4	55.4	85	51.0	0	0	---	0.00	30.198 
01:15	55.4	55.4	55.4	85	51.0	0	1	338	0.00	30.200 
01:20	55.4	55.4	55.4	85	51.0	0	1	338	0.00	30.200 
01:25	55.4	55.4	55.4	85	51.0	0	1	338	0.00	30.200 
01:30	55.4	55.4	55.4	85	51.0	0	0	---	0.00	30.200 
01:35	55.4	55.4	55.4	85	51.0	0	0	---	0.00	30.200 
01:40	55.4	55.4	55.4	85	51.0	0	0	---	0.00	30.200 
01:45	55.4	55.4	55.4	85	51.0	0	0	---	0.00	30.202 
01:50	55.3	55.3	55.3	85	50.9	0	0	---	0.00	30.202 
01:55	55.3	55.3	55.3	85	50.9	0	0	---	0.00	30.202 
02:00	55.1	55.1	55.1	85	50.7	0	1	338	0.00	30.202 
02:05	55.1	55.1	55.1	85	50.7	0	1	338	0.00	30.202 
02:10	55.1	55.1	55.1	84	50.4	0	1	338	0.00	30.202 
02:15	55.1	55.1	55.1	84	50.4	0	1	338	0.00	30.207 
02:20	55.1	55.1	55.1	85	50.7	0	1	338	0.00	30.207 
02:25	55.1	55.1	55.1	85	50.7	0	1	338	0.00	30.207 
02:30	55.0	55.0	55.0	85	50.6	0	1	338	0.00	30.204 
02:35	55.0	55.0	55.0	85	50.6	0	1	338	0.00	30.204 
02:40	55.0	55.0	55.0	85	50.6	0	1	338	0.00	30.204 
02:45	55.0	55.0	55.0	85	50.6	0	0	---	0.00	30.203 
02:50	55.0	55.0	55.0	85	50.6	0	1	338	0.00	30.203 
02:55	55.0	55.0	55.0	85	50.6	0	1	338	0.00	30.203 
03:00	54.8	54.8	54.8	85	50.4	0	0	---	0.00	30.202 
03:05	54.8	54.8	54.8	85	50.4	0	1	338	0.00	30.202 
03:10	54.8	54.8	54.8	86	50.7	0	1	338	0.00	30.202 
03:15	54.8	54.8	54.8	86	50.7	0	0	---	0.00	30.206 
03:20	54.8	54.8	54.8	86	50.7	0	1	338	0.00	30.206 
03:25	54.8	54.8	54.8	86	50.7	0	1	338	0.00	30.206 
03:30	54.8	54.8	54.8	86	50.7	0	1	338	0.00	30.206 
03:35	54.8	54.8	54.8	86	50.7	0	1	338	0.00	30.206 
03:40	54.8	54.8	54.8	86	50.7	0	1	338	0.00	30.206 
03:45	54.8	54.8	54.8	87	51.0	0	0	---	0.00	30.200 
03:50	54.8	54.8	54.8	86	50.7	0	2	338	0.00	30.200 
03:55	54.7	54.7	54.7	85	50.3	0	2	0	0.00	30.200 
04:00	54.7	54.7	54.7	84	50.0	0	2	0	0.00	30.198 
04:05	54.7	54.7	54.7	83	49.6	0	2	0	0.00	30.198 
04:10	54.7	54.7	54.7	83	49.6	0	2	0	0.00	30.198 
04:15	54.7	54.7	54.7	83	49.6	0	0	---	0.00	30.197 
04:20	54.7	54.7	54.7	82	49.3	0	1	0	0.00	30.197 
04:25	54.7	54.7	54.7	81	49.0	0	1	0	0.00	30.197 
04:30	54.7	54.7	54.7	81	49.0	0	0	---	0.00	30.200 
04:35	54.7	54.7	54.7	82	49.3	0	1	0	0.00	30.200 
04:40	54.7	54.7	54.7	82	49.3	0	0	---	0.00	30.200 
04:45	54.7	54.7	54.7	82	49.3	0	1	0	0.00	30.198 
04:50	54.7	54.7	54.7	82	49.3	0	2	0	0.00	30.198 
04:55	54.5	54.5	54.5	82	49.1	0	2	68	0.00	30.198 
05:00	54.5	54.5	54.5	82	49.1	0	3	90	0.00	30.198 
05:05	54.5	54.5	54.5	82	49.1	0	2	90	0.00	30.198 
05:10	54.4	54.4	54.4	82	49.0	0	1	90	0.00	30.198 
05:15	54.4	54.4	54.4	82	49.0	0	3	90	0.00	30.204 
05:20	54.4	54.4	54.4	82	49.0	0	2	90	0.00	30.204 
05:25	54.4	54.4	54.4	83	49.3	0	1	90	0.00	30.204 
05:30	54.4	54.4	54.4	83	49.3	0	1	90	0.00	30.206 
05:35	54.2	54.2	54.2	84	49.5	0	1	90	0.00	30.206 
05:40	54.2	54.2	54.2	84	49.5	0	1	90	0.00	30.206 
05:45	54.1	54.1	54.1	84	49.4	0	1	90	0.00	30.209 
05:50	54.1	54.1	54.1	84	49.4	0	1	90	0.00	30.209 
05:55	53.9	53.9	53.9	85	49.5	0	0	---	0.00	30.209 
06:00	53.9	53.9	53.9	84	49.2	0	1	90	0.00	30.214 
06:05	53.8	53.8	53.8	84	49.1	0	2	90	0.00	30.214 
06:10	53.8	53.8	53.8	84	49.1	0	2	90	0.00	30.214 
06:15	53.8	53.8	53.8	84	49.1	0	1	90	0.00	30.216 
06:20	53.8	53.8	53.8	84	49.1	0	1	90	0.00	30.216 
06:25	53.8	53.8	53.8	84	49.1	0	2	90	0.00	30.216 
06:30	53.8	53.8	53.8	84	49.1	0	1	90	0.00	30.217 
06:35	53.8	53.8	53.8	84	49.1	0	1	90	0.00	30.217 
06:40	53.8	53.8	53.8	84	49.1	0	0	---	0.00	30.217 
06:45	53.8	53.8	53.8	84	49.1	0	0	---	0.00	30.219 
06:50	53.6	53.6	53.6	84	48.9	0	1	90	0.00	30.219 
06:55	53.6	53.6	53.6	84	48.9	0	1	90	0.00	30.219 
07:00	53.6	53.6	53.6	84	48.9	0	1	90	0.00	30.220 
07:05	53.6	53.6	53.6	84	48.9	0	1	90	0.00	30.220 
07:10	53.6	53.6	53.6	85	49.2	0	2	90	0.00	30.220 
07:15	53.6	53.6	53.6	85	49.2	0	2	90	0.00	30.226 
07:20	53.6	53.6	53.6	85	49.2	0	1	90	0.00	30.226 
07:25	53.6	53.6	53.6	85	49.2	0	1	90	0.00	30.226 
07:30	53.6	53.6	53.6	85	49.2	0	3	90	0.00	30.233 
07:35	53.6	53.6	53.6	86	49.5	0	3	90	0.00	30.233 
07:40	53.6	53.6	53.6	86	49.5	0	2	90	0.00	30.233 
07:45	53.5	53.5	53.5	86	49.4	0	1	90	0.00	30.233 
07:50	53.5	53.5	53.5	86	49.4	0	2	90	0.00	30.233 
07:55	53.5	53.5	53.5	86	49.4	0	1	90	0.00	30.233 
08:00	53.5	53.5	53.5	86	49.4	0	1	90	0.00	30.233 
08:05	53.6	53.6	53.6	86	49.5	0	1	90	0.00	30.233 
08:10	53.6	53.6	53.6	87	49.8	0	1	90	0.00	30.233 
08:15	53.6	53.6	53.6	87	49.8	0	3	90	0.00	30.231 
08:20	53.6	53.6	53.6	86	49.5	0	2	90	0.00	30.231 
08:25	53.6	53.6	53.6	86	49.5	0	2	90	0.00	30.231 
08:30	53.6	53.6	53.6	86	49.5	0	1	90	0.00	30.235 
08:35	53.8	53.8	53.8	86	49.7	0	2	90	0.00	30.235 
08:40	53.9	53.9	53.9	86	49.8	0	1	90	0.00	30.235 
08:45	53.9	53.9	53.9	85	49.5	0	3	90	0.00	30.237 
08:50	53.9	53.9	53.9	84	49.2	0	3	135	0.00	30.237 
08:55	53.9	53.9	53.9	84	49.2	0	3	135	0.00	30.237 
09:00	53.9	53.9	53.9	84	49.2	0	3	135	0.00	30.241 
09:05	53.9	53.9	53.9	84	49.2	0	4	135	0.00	30.241 
09:10	53.9	53.9	53.9	84	49.2	1	3	135	0.00	30.241 
09:15	54.1	54.1	54.1	84	49.4	1	4	68	0.00	30.243 
09:20	54.1	54.1	54.1	84	49.4	1	4	68	0.00	30.243 
09:25	54.1	54.1	54.1	84	49.4	0	3	68	0.00	30.243 
09:30	54.2	54.2	54.2	83	49.1	1	3	68	0.00	30.242 
09:35	54.4	54.4	54.4	84	49.7	0	2	68	0.00	30.242 
09:40	54.5	54.5	54.5	84	49.8	0	2	68	0.00	30.242 
09:45	54.7	54.7	54.7	83	49.6	0	3	68	0.00	30.243 
09:50	54.8	54.8	54.8	83	49.7	0	2	68	0.00	30.243 
09:55	55.0	55.0	55.0	83	49.9	0	3	68	0.00	30.243 
10:00	55.1	55.1	55.1	82	49.7	0	3	68	0.00	30.246 
10:05	55.3	55.3	55.3	81	49.6	0	1	68	0.00	30.246 
10:10	55.3	55.3	55.3	79	48.9	1	3	68	0.00	30.246 
10:15	55.6	55.6	55.6	80	49.5	0	2	68	0.00	30.249 
10:20	55.6	55.6	55.6	79	49.2	0	1	68	0.00	30.249 
10:25	55.6	55.6	55.6	78	48.8	1	4	68	0.00	30.249 
10:30	55.7	55.7	55.7	79	49.3	0	0	---	0.00	30.262 
10:35	55.7	55.7	55.7	79	49.3	0	1	68	0.00	30.262 
10:40	55.6	55.6	55.6	77	48.5	0	2	68	0.00	30.262 
10:45	55.6	55.6	55.6	77	48.5	0	3	68	0.00	30.261 
10:50	55.6	55.6	55.6	77	48.5	0	1	68	0.00	30.261 
10:55	55.4	55.4	55.4	77	48.3	0	1	68	0.00	30.261 
11:00	55.4	55.4	55.4	78	48.7	0	1	68	0.00	30.262 
11:05	55.4	55.4	55.4	77	48.3	0	1	68	0.00	30.262 
11:10	55.4	55.4	55.4	77	48.3	0	1	68	0.00	30.262 
11:15	55.4	55.4	55.4	77	48.3	0	1	68	0.00	30.264 
11:20	55.6	55.6	55.6	77	48.5	0	1	68	0.00	30.264 
11:25	55.7	55.7	55.7	76	48.3	0	2	68	0.00	30.264 
11:30	56.0	56.0	56.0	77	48.9	0	1	68	0.00	30.260 
11:35	56.3	56.3	56.3	76	48.8	0	1	68	0.00	30.260 
11:40	56.6	56.6	56.6	76	49.1	0	2	68	0.00	30.260 
11:45	56.7	56.7	56.7	77	49.6	0	1	68	0.00	30.257 
11:50	56.7	56.7	56.7	76	49.2	0	5	90	0.00	30.257 
11:55	56.7	56.7	56.7	76	49.2	0	1	90	0.00	30.257 
12:00	56.7	56.7	56.7	76	49.2	0	1	90	0.00	30.251 
12:05	56.7	56.7	56.7	74	48.5	0	2	90	0.00	30.251 
12:10	56.7	56.7	56.7	74	48.5	0	2	90	0.00	30.251 
12:15	56.6	56.6	56.6	74	48.4	0	2	90	0.00	30.248 
12:20	56.7	56.7	56.7	75	48.9	0	1	90	0.00	30.248 
12:25	56.7	56.7	56.7	74	48.5	1	3	90	0.00	30.248 
12:30	56.7	56.7	56.7	74	48.5	0	1	90	0.00	30.243 
12:35	56.7	56.7	56.7	73	48.1	0	2	90	0.00	30.243 
12:40	56.7	56.7	56.7	74	48.5	0	1	90	0.00	30.243 
12:45	56.9	56.9	56.9	75	49.1	0	2	90	0.00	30.243 
12:50	56.9	56.9	56.9	74	48.7	0	2	90	0.00	30.243 
12:55	57.2	57.2	57.2	77	50.1	0	2	90	0.00	30.243 
13:00	57.5	57.5	57.5	75	49.6	0	3	90	0.00	30.240 
13:05	57.6	57.6	57.6	74	49.4	1	4	90	0.00	30.240 
13:10	57.8	57.8	57.8	73	49.2	0	3	90	0.00	30.240 
13:15	58.0	58.0	58.0	74	49.8	0	2	90	0.00	30.240 
13:20	58.0	58.0	58.0	74	49.8	1	3	90	0.00	30.240 
13:25	57.8	57.8	57.8	73	49.2	0	2	90	0.00	30.240 
13:30	57.6	57.6	57.6	73	49.0	0	2	90	0.00	30.242 
13:35	57.5	57.5	57.5	74	49.3	0	4	90	0.00	30.242 
13:40	57.5	57.5	57.5	74	49.3	0	1	90	0.00	30.242 
13:45	57.3	57.3	57.3	74	49.1	0	2	90	0.00	30.241 
13:50	57.2	57.2	57.2	74	49.0	0	2	90	0.00	30.241 
13:55	57.2	57.2	57.2	76	49.7	0	1	90	0.00	30.241 
14:00	57.2	57.2	57.2	76	49.7	0	3	90	0.00	30.239 
14:05	57.2	57.2	57.2	75	49.3	0	1	90	0.00	30.239 
14:10	57.2	57.2	57.2	75	49.3	0	1	90	0.00	30.239 
14:15	57.2	57.2	57.2	76	49.7	0	1	90	0.00	30.233 
14:20	57.2	57.2	57.2	76	49.7	0	3	90	0.00	30.233 
14:25	57.2	57.2	57.2	76	49.7	0	2	90	0.00	30.233 
14:30	57.3	57.3	57.3	77	50.1	0	1	90	0.00	30.228 
14:35	57.5	57.5	57.5	77	50.3	0	3	90	0.00	30.228 
14:40	57.6	57.6	57.6	77	50.4	0	1	90	0.00	30.228 
14:45	57.6	57.6	57.6	76	50.1	1	4	90	0.00	30.221 
14:50	57.6	57.6	57.6	76	50.1	0	3	90	0.00	30.221 
14:55	57.6	57.6	57.6	76	50.1	0	1	90	0.00	30.221 
15:00	57.6	57.6	57.6	77	50.4	0	1	90	0.00	30.217 
15:05	57.8	57.8	57.8	77	50.6	0	3	90	0.00	30.217 
15:10	58.0	58.0	58.0	76	50.5	1	3	68	0.00	30.217 
15:15	58.0	58.0	58.0	76	50.5	0	5	68	0.00	30.215 
15:20	57.6	57.6	57.6	76	50.1	1	4	90	0.00	30.215 
15:25	57.5	57.5	57.5	77	50.3	0	2	90	0.00	30.215 
15:30	57.3	57.3	57.3	77	50.1	0	4	90	0.00	30.215 
15:35	57.2	57.2	57.2	77	50.1	0	2	90	0.00	30.215 
15:40	57.2	57.2	57.2	78	50.4	0	2	90	0.00	30.215 
15:45	57.2	57.2	57.2	78	50.4	0	1	90	0.00	30.206 
15:50	57.0	57.0	57.0	77	49.9	0	1	90	0.00	30.206 
15:55	57.2	57.2	57.2	78	50.4	0	2	90	0.00	30.206 
16:00	57.2	57.2	57.2	77	50.1	0	1	90	0.00	30.203 
16:05	57.2	57.2	57.2	77	50.1	0	3	90	0.00	30.203 
16:10	57.0	57.0	57.0	78	50.2	0	1	90	0.00	30.203 
16:15	57.0	57.0	57.0	78	50.2	0	1	90	0.00	30.200 
16:20	56.9	56.9	56.9	78	50.1	0	1	90	0.00	30.200 
16:25	56.7	56.7	56.7	79	50.3	0	3	90	0.00	30.200 
16:30	56.6	56.6	56.6	79	50.2	0	1	90	0.00	30.199 
16:35	56.5	56.5	56.5	79	50.1	0	3	90	0.00	30.199 
16:40	56.5	56.5	56.5	80	50.4	0	1	90	0.00	30.199 
16:45	56.6	56.6	56.6	80	50.5	0	2	90	0.00	30.200 
16:50	56.6	56.6	56.6	79	50.2	0	2	90	0.00	30.200 
16:55	56.9	56.9	56.9	79	50.5	1	4	90	0.00	30.200 
17:00	57.2	57.2	57.2	79	50.7	1	3	90	0.00	30.184 
17:05	57.5	57.5	57.5	78	50.7	0	3	90	0.00	30.184 
17:10	57.6	57.6	57.6	77	50.4	0	1	90	0.00	30.184 
17:15	57.6	57.6	57.6	77	50.4	1	6	90	0.00	30.184 
17:20	57.6	57.6	57.6	76	50.1	1	4	90	0.00	30.184 
17:25	57.6	57.6	57.6	77	50.4	1	3	90	0.00	30.184 
17:30	57.6	57.6	57.6	77	50.4	0	3	90	0.00	30.183 
17:35	57.8	57.8	57.8	77	50.6	0	3	90	0.00	30.183 
17:40	57.8	57.8	57.8	76	50.3	0	3	90	0.00	30.183 
17:45	57.8	57.8	57.8	76	50.3	1	3	90	0.00	30.173 
17:50	57.8	57.8	57.8	76	50.3	0	1	90	0.00	30.173 
17:55	57.8	57.8	57.8	76	50.3	0	1	90	0.00	30.173 
18:00	57.8	57.8	57.8	77	50.6	0	2	90	0.00	30.172 
18:05	58.0	58.0	58.0	77	50.8	0	1	90	0.00	30.172 
18:10	58.0	58.0	58.0	76	50.5	0	2	90	0.00	30.172 
18:15	57.8	57.8	57.8	77	50.6	0	1	90	0.00	30.172 
18:20	57.8	57.8	57.8	77	50.6	0	2	90	0.00	30.172 
18:25	57.6	57.6	57.6	77	50.4	0	2	90	0.00	30.172 
18:30	57.6	57.6	57.6	77	50.4	0	1	90	0.00	30.180 
18:35	57.5	57.5	57.5	77	50.3	0	1	90	0.00	30.180 
18:40	57.5	57.5	57.5	77	50.3	0	1	90	0.00	30.180 
18:45	57.3	57.3	57.3	77	50.1	0	0	---	0.00	30.188 
18:50	57.3	57.3	57.3	78	50.5	0	1	90	0.00	30.188 
18:55	57.3	57.3	57.3	78	50.5	0	1	90	0.00	30.188 
19:00	57.2	57.2	57.2	78	50.4	0	2	90	0.00	30.187 
19:05	57.2	57.2	57.2	78	50.4	0	0	---	0.00	30.187 
19:10	57.2	57.2	57.2	78	50.4	0	1	90	0.00	30.187 
19:15	57.2	57.2	57.2	78	50.4	0	1	90	0.00	30.178 
19:20	57.2	57.2	57.2	78	50.4	0	1	90	0.00	30.178 
19:25	57.2	57.2	57.2	78	50.4	0	1	90	0.00	30.178 
19:30	57.2	57.2	57.2	78	50.4	0	1	90	0.00	30.172 
19:35	57.2	57.2	57.2	79	50.7	0	1	90	0.00	30.172 
19:40	57.2	57.2	57.2	79	50.7	0	1	90	0.00	30.172 
19:45	57.2	57.2	57.2	79	50.7	0	0	---	0.00	30.174 
19:50	57.0	57.0	57.0	79	50.5	0	2	90	0.00	30.174 
19:55	57.0	57.0	57.0	79	50.5	0	1	90	0.00	30.174 
20:00	57.0	57.0	57.0	79	50.5	0	1	90	0.00	30.164 
20:05	57.0	57.0	57.0	79	50.5	0	0	---	0.00	30.164 
20:10	56.9	56.9	56.9	80	50.8	0	0	---	0.00	30.164 
20:15	56.9	56.9	56.9	80	50.8	0	0	---	0.00	30.166 
20:20	56.9	56.9	56.9	80	50.8	0	0	---	0.00	30.166 
20:25	56.7	56.7	56.7	81	50.9	0	0	---	0.00	30.166 
20:30	56.7	56.7	56.7	81	50.9	0	0	---	0.00	30.169 
20:35	56.7	56.7	56.7	81	50.9	0	0	---	0.00	30.169 
20:40	56.7	56.7	56.7	81	50.9	0	0	---	0.00	30.169 
20:45	56.7	56.7	56.7	81	50.9	0	0	---	0.00	30.166 
20:50	56.7	56.7	56.7	81	50.9	0	1	90	0.00	30.166 
20:55	56.7	56.7	56.7	81	50.9	0	1	90	0.00	30.166 
21:00	56.7	56.7	56.7	81	50.9	0	0	---	0.00	30.168 
21:05	56.7	56.7	56.7	81	50.9	0	0	---	0.00	30.168 
21:10	56.6	56.6	56.6	81	50.8	0	0	---	0.00	30.168 
21:15	56.6	56.6	56.6	81	50.8	0	0	---	0.00	30.166 
21:20	56.7	56.7	56.7	81	50.9	0	0	---	0.00	30.166 
21:25	56.6	56.6	56.6	81	50.8	0	0	---	0.00	30.166 
21:30	56.6	56.6	56.6	81	50.8	0	1	90	0.00	30.168 
21:35	56.6	56.6	56.6	82	51.2	0	0	---	0.00	30.168 
21:40	56.7	56.7	56.7	83	51.6	0	0	---	0.00	30.168 
21:45	56.7	56.7	56.7	83	51.6	0	0	---	0.00	30.164 
21:50	56.6	56.6	56.6	83	51.5	0	0	---	0.00	30.164 
21:55	56.6	56.6	56.6	83	51.5	0	0	---	0.00	30.164 
22:00	56.5	56.5	56.5	83	51.4	0	0	---	0.00	30.163 
22:05	56.5	56.5	56.5	83	51.4	0	0	---	0.00	30.163 
22:10	56.5	56.5	56.5	84	51.7	0	0	---	0.00	30.163 
22:15	56.5	56.5	56.5	84	51.7	0	1	90	0.00	30.167 
22:20	56.5	56.5	56.5	84	51.7	0	0	---	0.00	30.167 
22:25	56.5	56.5	56.5	84	51.7	0	0	---	0.00	30.167 
22:30	56.5	56.5	56.5	84	51.7	0	1	90	0.00	30.152 
22:35	56.3	56.3	56.3	84	51.5	0	1	90	0.00	30.152 
22:40	56.3	56.3	56.3	84	51.5	0	0	---	0.00	30.152 
22:45	56.3	56.3	56.3	84	51.5	0	0	---	0.00	30.165 
22:50	56.3	56.3	56.3	84	51.5	0	1	90	0.00	30.165 
22:55	56.3	56.3	56.3	84	51.5	0	0	---	0.00	30.165 
23:00	56.2	56.2	56.2	84	51.4	0	0	---	0.00	30.157 
23:05	56.2	56.2	56.2	84	51.4	0	0	---	0.00	30.157 
23:10	56.2	56.2	56.2	84	51.4	0	0	---	0.00	30.157 
23:15	56.0	56.0	56.0	84	51.2	0	1	90	0.00	30.167 
23:20	56.0	56.0	56.0	84	51.2	0	1	90	0.00	30.167 
23:25	56.0	56.0	56.0	84	51.2	0	0	---	0.00	30.167 
23:30	56.0	56.0	56.0	84	51.2	0	0	---	0.00	30.155 
23:35	56.0	56.0	56.0	84	51.2	0	0	---	0.00	30.155 
23:40	56.0	56.0	56.0	85	51.6	0	0	---	0.00	30.155 
23:45	55.9	55.9	55.9	85	51.5	0	0	---	0.00	30.154 
23:50	55.9	55.9	55.9	85	51.5	0	1	90	0.00	30.154 
23:55	55.9	55.9	55.9	85	51.5	0	1	90	0.00	30.154 

CoCoRaHS
IN-AL-39
A2 Web Hosting
Creative Commons License
GoDaddy
search engine by freefind advanced

loaded 2018-11-13 21:17:24 • last modified 2010-11-18 10:43:29
Privacy PolicyDisclaimer
• wx.awcolley.com is powered by PmWiki v.2002016 •
• all content (unless otherwise noted) © 2018 A W Colley